createdAt,value
2022-07-27T00:01:16.958Z,11.51
2022-07-27T00:03:46.168Z,11.29
2022-07-27T00:06:14.564Z,11.48
2022-07-27T00:08:42.264Z,11.42
2022-07-27T00:11:10.920Z,11.28
2022-07-27T00:13:39.300Z,11.15
2022-07-27T00:16:07.929Z,11.12
2022-07-27T00:18:35.640Z,11.07
2022-07-27T00:21:03.752Z,11.03
2022-07-27T00:23:31.551Z,11.01
2022-07-27T00:25:59.161Z,11.18
2022-07-27T00:28:26.983Z,11.12
2022-07-27T00:30:54.747Z,11.09
2022-07-27T00:33:22.311Z,11.05
2022-07-27T00:35:50.188Z,10.95
2022-07-27T00:38:17.750Z,10.92
2022-07-27T00:40:45.461Z,10.88
2022-07-27T00:43:13.407Z,10.88
2022-07-27T00:45:41.792Z,10.84
2022-07-27T00:48:09.633Z,10.79
2022-07-27T00:50:42.503Z,10.92
2022-07-27T00:53:11.036Z,10.82
2022-07-27T00:55:40.513Z,10.97
2022-07-27T00:58:11.767Z,10.92
2022-07-27T01:00:40.125Z,10.84
2022-07-27T01:03:09.098Z,10.92
2022-07-27T01:05:43.264Z,10.62
2022-07-27T01:08:14.588Z,10.97
2022-07-27T01:10:44.668Z,10.82
2022-07-27T01:13:15.887Z,10.61
2022-07-27T01:15:44.210Z,10.65
2022-07-27T01:18:31.242Z,10.68
2022-07-27T01:21:01.859Z,10.53
2022-07-27T01:23:33.668Z,10.42
2022-07-27T01:26:03.301Z,10.32
2022-07-27T01:28:31.299Z,10.29
2022-07-27T01:30:59.163Z,10.29
2022-07-27T01:33:27.134Z,10.38
2022-07-27T01:35:57.528Z,10.36
2022-07-27T01:38:25.326Z,10.23
2022-07-27T01:40:54.793Z,10.18
2022-07-27T01:43:23.868Z,10.24
2022-07-27T01:45:52.211Z,10.22
2022-07-27T01:48:20.366Z,10.27
2022-07-27T01:50:48.251Z,10.18
2022-07-27T01:53:16.167Z,10.17
2022-07-27T01:55:43.858Z,10.09
2022-07-27T01:58:12.252Z,10.09
2022-07-27T02:00:40.805Z,10.10
2022-07-27T02:03:10.643Z,10.12
2022-07-27T02:05:40.105Z,10.09
2022-07-27T02:08:09.342Z,10.09
2022-07-27T02:10:58.947Z,10.11
2022-07-27T02:13:26.993Z,10.06
2022-07-27T02:15:55.051Z,10.08
2022-07-27T02:18:33.614Z,10.05
2022-07-27T02:21:06.464Z,10.01
2022-07-27T02:23:35.964Z,9.96
2022-07-27T02:26:08.613Z,10.02
2022-07-27T02:28:36.678Z,9.93
2022-07-27T02:31:05.082Z,9.93
2022-07-27T02:33:33.603Z,9.98
2022-07-27T02:36:01.922Z,9.98
2022-07-27T02:38:29.560Z,9.83
2022-07-27T02:40:57.245Z,9.88
2022-07-27T02:43:25.173Z,9.81
2022-07-27T02:45:52.900Z,9.80
2022-07-27T02:48:20.958Z,9.80
2022-07-27T02:50:49.005Z,9.86
2022-07-27T02:53:16.640Z,9.79
2022-07-27T02:55:44.273Z,9.71
2022-07-27T02:58:12.179Z,9.63
2022-07-27T03:00:39.862Z,9.60
2022-07-27T03:03:07.499Z,9.74
2022-07-27T03:05:35.400Z,9.60
2022-07-27T03:08:04.204Z,9.83
2022-07-27T03:10:32.438Z,9.63
2022-07-27T03:13:00.384Z,9.63
2022-07-27T03:15:29.792Z,9.75
2022-07-27T03:17:57.631Z,9.86
2022-07-27T03:20:25.566Z,9.90
2022-07-27T03:22:54.352Z,9.86
2022-07-27T03:25:22.277Z,9.86
2022-07-27T03:27:50.241Z,9.98
2022-07-27T03:30:18.295Z,10.00
2022-07-27T03:32:49.402Z,10.00
2022-07-27T03:35:48.558Z,10.04
2022-07-27T03:38:16.567Z,10.03
2022-07-27T03:40:45.663Z,10.05
2022-07-27T03:43:13.341Z,10.11
2022-07-27T03:45:41.088Z,10.15
2022-07-27T03:48:09.072Z,10.17
2022-07-27T03:50:37.311Z,10.34
2022-07-27T03:53:04.893Z,10.27
2022-07-27T03:55:32.807Z,10.33
2022-07-27T03:58:00.599Z,10.42
2022-07-27T04:00:28.585Z,10.46
2022-07-27T04:02:56.629Z,10.48
2022-07-27T04:05:24.327Z,10.53
2022-07-27T04:07:57.730Z,10.56
2022-07-27T04:10:29.208Z,10.62
2022-07-27T04:12:59.765Z,10.73
2022-07-27T04:15:28.374Z,10.76
2022-07-27T04:17:57.660Z,10.87
2022-07-27T04:20:26.288Z,10.93
2022-07-27T04:22:54.727Z,10.95
2022-07-27T04:25:23.120Z,11.11
2022-07-27T04:27:51.129Z,11.17
2022-07-27T04:30:19.192Z,11.26
2022-07-27T04:32:46.905Z,11.19
2022-07-27T04:35:14.708Z,11.27
2022-07-27T04:37:58.355Z,11.30
2022-07-27T04:40:34.577Z,11.44
2022-07-27T04:43:05.936Z,11.47
2022-07-27T04:45:35.398Z,11.66
2022-07-27T04:48:10.622Z,11.67
2022-07-27T04:50:43.497Z,11.63
2022-07-27T04:53:12.820Z,11.69
2022-07-27T04:55:47.369Z,11.80
2022-07-27T04:58:16.212Z,11.80
2022-07-27T05:00:44.364Z,11.97
2022-07-27T05:03:12.547Z,12.10
2022-07-27T05:05:40.234Z,12.26
2022-07-27T05:08:18.434Z,12.27
2022-07-27T05:10:46.900Z,12.35
2022-07-27T05:13:15.078Z,12.53
2022-07-27T05:15:55.371Z,12.52
2022-07-27T05:18:25.669Z,12.62
2022-07-27T05:20:53.863Z,12.60
2022-07-27T05:23:21.584Z,12.78
2022-07-27T05:25:49.265Z,12.74
2022-07-27T05:28:17.563Z,12.87
2022-07-27T05:30:45.326Z,13.18
2022-07-27T05:33:13.077Z,13.13
2022-07-27T05:35:41.033Z,13.06
2022-07-27T05:38:09.113Z,13.29
2022-07-27T05:40:37.019Z,13.22
2022-07-27T05:43:05.023Z,13.47
2022-07-27T05:45:32.804Z,13.49
2022-07-27T05:48:00.915Z,13.58
2022-07-27T05:50:29.023Z,13.67
2022-07-27T05:52:58.791Z,13.54
2022-07-27T05:55:26.764Z,13.86
2022-07-27T05:57:54.764Z,13.83
2022-07-27T06:00:22.371Z,13.81
2022-07-27T06:02:50.035Z,14.13
2022-07-27T06:05:17.951Z,14.35
2022-07-27T06:08:03.278Z,14.12
2022-07-27T06:10:33.918Z,13.98
2022-07-27T06:13:08.404Z,13.96
2022-07-27T06:15:37.245Z,14.32
2022-07-27T06:18:06.879Z,14.51
2022-07-27T06:20:34.666Z,14.85
2022-07-27T06:23:07.617Z,14.77
2022-07-27T06:25:36.765Z,14.51
2022-07-27T06:28:06.242Z,14.73
2022-07-27T06:30:34.108Z,14.89
2022-07-27T06:33:06.797Z,15.18
2022-07-27T06:35:39.067Z,14.95
2022-07-27T06:38:08.363Z,15.11
2022-07-27T06:40:36.593Z,15.30
2022-07-27T06:43:04.457Z,14.97
2022-07-27T06:45:32.112Z,15.23
2022-07-27T06:47:59.994Z,15.24
2022-07-27T06:50:27.735Z,15.25
2022-07-27T06:52:55.532Z,15.28
2022-07-27T06:55:23.504Z,15.24
2022-07-27T06:57:51.229Z,15.25
2022-07-27T07:00:18.872Z,15.36
2022-07-27T07:03:03.139Z,15.46
2022-07-27T07:05:33.349Z,15.75
2022-07-27T07:08:11.538Z,15.47
2022-07-27T07:10:45.214Z,15.42
2022-07-27T07:13:13.513Z,15.97
2022-07-27T07:15:43.376Z,16.09
2022-07-27T07:18:12.699Z,15.93
2022-07-27T07:20:41.778Z,15.97
2022-07-27T07:23:10.109Z,16.04
2022-07-27T07:25:39.436Z,16.39
2022-07-27T07:28:08.595Z,16.81
2022-07-27T07:30:37.036Z,16.56
2022-07-27T07:33:05.026Z,16.63
2022-07-27T07:35:33.155Z,16.74
2022-07-27T07:38:00.947Z,16.63
2022-07-27T07:40:45.247Z,16.66
2022-07-27T07:43:13.951Z,16.89
2022-07-27T07:45:50.280Z,17.40
2022-07-27T07:48:22.129Z,17.16
2022-07-27T07:50:53.236Z,16.76
2022-07-27T07:53:23.781Z,17.14
2022-07-27T07:55:53.941Z,17.05
2022-07-27T07:58:22.052Z,17.24
2022-07-27T08:00:50.156Z,17.32
2022-07-27T08:03:19.213Z,17.78
2022-07-27T08:05:47.528Z,17.34
2022-07-27T08:08:15.859Z,16.84
2022-07-27T08:10:43.665Z,17.28
2022-07-27T08:13:11.336Z,17.12
2022-07-27T08:15:39.547Z,17.10
2022-07-27T08:18:10.244Z,16.68
2022-07-27T08:20:38.289Z,16.95
2022-07-27T08:23:07.138Z,16.97
2022-07-27T08:25:35.109Z,16.87
2022-07-27T08:28:03.570Z,16.68
2022-07-27T08:30:33.705Z,16.55
2022-07-27T08:33:04.319Z,16.74
2022-07-27T08:35:34.935Z,16.95
2022-07-27T08:38:06.790Z,16.65
2022-07-27T08:40:40.329Z,16.65
2022-07-27T08:43:11.961Z,16.57
2022-07-27T08:45:42.002Z,16.22
2022-07-27T08:48:14.480Z,16.27
2022-07-27T08:50:43.289Z,16.00
2022-07-27T08:53:13.795Z,16.20
2022-07-27T08:55:45.181Z,16.29
2022-07-27T08:58:15.831Z,16.21
2022-07-27T09:00:50.049Z,16.18
2022-07-27T09:03:22.051Z,16.22
2022-07-27T09:05:57.974Z,16.65
2022-07-27T09:08:30.922Z,16.80
2022-07-27T09:11:01.019Z,17.10
2022-07-27T09:13:32.630Z,16.86
2022-07-27T09:16:18.213Z,16.24
2022-07-27T09:18:49.108Z,16.40
2022-07-27T09:21:19.194Z,16.30
2022-07-27T09:24:23.361Z,15.92
2022-07-27T09:27:05.960Z,16.23
2022-07-27T09:29:36.224Z,15.90
2022-07-27T09:32:17.898Z,15.99
2022-07-27T09:34:45.843Z,16.36
2022-07-27T09:37:28.765Z,16.07
2022-07-27T09:40:22.616Z,16.63
2022-07-27T09:43:52.128Z,16.67
2022-07-27T09:46:08.571Z,17.38
2022-07-27T09:48:37.464Z,16.46
2022-07-27T09:51:55.885Z,16.51
2022-07-27T09:54:06.235Z,17.26
2022-07-27T09:56:34.646Z,17.52
2022-07-27T09:59:04.179Z,17.41
2022-07-27T10:01:43.966Z,18.28
2022-07-27T10:04:16.784Z,17.86
2022-07-27T10:07:01.690Z,16.80
2022-07-27T10:09:32.107Z,17.91
2022-07-27T10:12:02.024Z,17.84
2022-07-27T10:14:31.126Z,18.05
2022-07-27T10:16:59.912Z,17.82
2022-07-27T10:19:50.666Z,17.78
2022-07-27T10:22:53.745Z,16.99
2022-07-27T10:25:24.372Z,16.50
2022-07-27T10:28:19.415Z,16.51
2022-07-27T10:30:53.598Z,16.61
2022-07-27T10:33:42.956Z,16.67
2022-07-27T10:36:25.839Z,17.07
2022-07-27T10:38:57.743Z,16.55
2022-07-27T10:41:40.164Z,16.43
2022-07-27T10:44:17.740Z,17.04
2022-07-27T10:47:01.805Z,17.07
2022-07-27T10:49:40.336Z,17.27
2022-07-27T10:52:42.630Z,17.29
2022-07-27T10:55:36.529Z,17.30
2022-07-27T10:58:10.611Z,17.19
2022-07-27T11:00:55.126Z,17.94
2022-07-27T11:03:39.600Z,17.64
2022-07-27T11:06:41.892Z,18.22
2022-07-27T11:10:02.908Z,18.44
2022-07-27T11:12:11.751Z,18.66
2022-07-27T11:14:54.813Z,18.28
2022-07-27T11:20:24.413Z,17.85
2022-07-27T11:25:41.456Z,17.18
2022-07-27T11:28:09.689Z,16.90
2022-07-27T11:30:37.825Z,16.83
2022-07-27T11:33:06.343Z,16.94
2022-07-27T11:35:34.840Z,17.00
2022-07-27T11:38:06.799Z,17.01
2022-07-27T11:41:02.326Z,16.65
2022-07-27T11:43:39.482Z,16.80
2022-07-27T11:46:19.509Z,16.22
2022-07-27T11:49:09.321Z,16.42
2022-07-27T11:51:42.792Z,16.42
2022-07-27T11:54:34.012Z,16.57
2022-07-27T11:57:15.807Z,17.39
2022-07-27T11:59:46.074Z,17.59
2022-07-27T12:02:18.124Z,17.17
2022-07-27T12:04:50.728Z,17.73
2022-07-27T12:07:30.129Z,17.47
2022-07-27T12:10:07.184Z,18.23
2022-07-27T12:12:37.636Z,18.48
2022-07-27T12:15:44.591Z,19.19
2022-07-27T12:18:09.093Z,19.70
2022-07-27T12:20:37.960Z,19.88
2022-07-27T12:23:08.499Z,19.60
2022-07-27T12:25:39.161Z,19.08
2022-07-27T12:28:13.534Z,18.84
2022-07-27T12:30:49.126Z,18.51
2022-07-27T12:33:35.324Z,18.46
2022-07-27T12:36:07.174Z,18.62
2022-07-27T12:38:45.132Z,18.07
2022-07-27T12:41:29.816Z,18.13
2022-07-27T12:44:15.871Z,18.11
2022-07-27T12:46:56.593Z,18.07
2022-07-27T12:49:25.493Z,17.65
2022-07-27T12:51:53.341Z,17.82
2022-07-27T12:54:21.154Z,18.49
2022-07-27T12:56:49.983Z,18.23
2022-07-27T12:59:23.607Z,18.02
2022-07-27T13:01:53.095Z,18.47
2022-07-27T13:04:20.780Z,18.08
2022-07-27T13:06:48.637Z,17.86
2022-07-27T13:09:16.822Z,17.82
2022-07-27T13:11:47.848Z,17.58
2022-07-27T13:14:16.171Z,17.43
2022-07-27T13:16:44.379Z,17.50
2022-07-27T13:19:15.303Z,17.11
2022-07-27T13:21:44.864Z,17.21
2022-07-27T13:24:13.314Z,17.30
2022-07-27T13:26:41.414Z,17.08
2022-07-27T13:29:09.145Z,17.23
2022-07-27T13:31:37.261Z,17.30
2022-07-27T13:34:05.359Z,17.20
2022-07-27T13:36:33.225Z,17.30
2022-07-27T13:39:01.604Z,17.24
2022-07-27T13:41:29.456Z,17.20
2022-07-27T13:43:57.216Z,17.65
2022-07-27T13:46:25.300Z,18.36
2022-07-27T13:48:53.076Z,18.29
2022-07-27T13:51:20.977Z,17.64
2022-07-27T13:53:49.253Z,18.12
2022-07-27T13:56:17.161Z,18.05
2022-07-27T13:58:51.847Z,17.57
2022-07-27T14:01:19.608Z,17.71
2022-07-27T14:03:47.541Z,17.84
2022-07-27T14:06:16.513Z,17.50
2022-07-27T14:08:44.672Z,17.42
2022-07-27T14:11:12.881Z,17.41
2022-07-27T14:13:41.296Z,17.11
2022-07-27T14:16:10.139Z,16.89
2022-07-27T14:18:38.890Z,17.38
2022-07-27T14:21:09.252Z,17.38
2022-07-27T14:23:37.830Z,17.45
2022-07-27T14:26:08.213Z,17.09
2022-07-27T14:28:37.823Z,17.35
2022-07-27T14:31:09.872Z,17.82
2022-07-27T14:33:39.837Z,18.00
2022-07-27T14:36:09.842Z,18.02
2022-07-27T14:38:38.018Z,17.92
2022-07-27T14:41:06.620Z,17.61
2022-07-27T14:43:34.703Z,17.91
2022-07-27T14:46:02.553Z,17.74
2022-07-27T14:49:04.636Z,17.51
2022-07-27T14:51:18.560Z,17.70
2022-07-27T14:53:46.496Z,17.63
2022-07-27T14:56:14.468Z,17.50
2022-07-27T14:58:42.595Z,16.97
2022-07-27T15:01:10.887Z,17.22
2022-07-27T15:03:38.793Z,16.89
2022-07-27T15:06:06.638Z,16.80
2022-07-27T15:08:34.716Z,16.72
2022-07-27T15:11:02.675Z,16.85
2022-07-27T15:13:30.837Z,16.94
2022-07-27T15:15:59.319Z,16.78
2022-07-27T15:18:27.266Z,17.02
2022-07-27T15:20:55.642Z,16.94
2022-07-27T15:23:24.398Z,17.18
2022-07-27T15:25:52.650Z,17.54
2022-07-27T15:28:20.599Z,17.28
2022-07-27T15:30:49.178Z,17.24
2022-07-27T15:33:17.323Z,17.05
2022-07-27T15:35:45.293Z,17.04
2022-07-27T15:38:13.682Z,17.31
2022-07-27T15:40:42.178Z,17.25
2022-07-27T15:43:17.278Z,17.06
2022-07-27T15:45:49.608Z,16.78
2022-07-27T15:48:20.245Z,16.48
2022-07-27T15:50:52.783Z,16.48
2022-07-27T15:53:22.966Z,16.61
2022-07-27T15:55:54.675Z,16.50
2022-07-27T15:58:23.071Z,16.33
2022-07-27T16:00:55.980Z,16.56
2022-07-27T16:03:27.402Z,16.50
2022-07-27T16:05:56.296Z,16.16
2022-07-27T16:08:24.089Z,16.29
2022-07-27T16:10:52.041Z,16.13
2022-07-27T16:13:19.887Z,16.10
2022-07-27T16:16:06.265Z,16.09
2022-07-27T16:18:38.731Z,16.28
2022-07-27T16:21:08.585Z,16.15
2022-07-27T16:23:36.697Z,16.11
2022-07-27T16:26:11.947Z,16.05
2022-07-27T16:28:45.526Z,15.95
2022-07-27T16:31:18.699Z,16.13
2022-07-27T16:33:49.599Z,16.02
2022-07-27T16:36:23.033Z,15.95
2022-07-27T16:38:52.302Z,15.81
2022-07-27T16:41:22.587Z,16.05
2022-07-27T16:43:50.815Z,15.88
2022-07-27T16:46:18.903Z,15.75
2022-07-27T16:48:47.267Z,15.84
2022-07-27T16:51:16.380Z,15.86
2022-07-27T16:53:48.270Z,15.88
2022-07-27T16:56:17.682Z,15.90
2022-07-27T16:58:45.957Z,15.86
2022-07-27T17:01:26.285Z,15.39
2022-07-27T17:03:57.546Z,15.60
2022-07-27T17:06:26.773Z,15.53
2022-07-27T17:08:55.378Z,15.58
2022-07-27T17:11:24.930Z,15.00
2022-07-27T17:13:59.021Z,15.16
2022-07-27T17:16:29.407Z,15.33
2022-07-27T17:18:57.563Z,15.55
2022-07-27T17:21:26.111Z,15.36
2022-07-27T17:23:54.383Z,15.63
2022-07-27T17:26:24.266Z,15.59
2022-07-27T17:28:53.379Z,15.56
2022-07-27T17:31:21.878Z,15.60
2022-07-27T17:33:51.335Z,15.54
2022-07-27T17:36:20.265Z,15.19
2022-07-27T17:38:50.956Z,14.94
2022-07-27T17:41:24.512Z,15.20
2022-07-27T17:43:55.008Z,15.07
2022-07-27T17:46:24.993Z,14.91
2022-07-27T17:48:54.578Z,14.89
2022-07-27T17:51:25.325Z,14.69
2022-07-27T17:53:54.316Z,14.64
2022-07-27T17:56:22.841Z,14.69
2022-07-27T17:58:51.481Z,14.66
2022-07-27T18:01:46.573Z,14.69
2022-07-27T18:04:07.991Z,14.45
2022-07-27T18:06:36.040Z,14.56
2022-07-27T18:09:05.033Z,14.45
2022-07-27T18:11:33.524Z,14.37
2022-07-27T18:14:01.674Z,14.40
2022-07-27T18:16:29.658Z,14.30
2022-07-27T18:18:57.779Z,14.24
2022-07-27T18:21:25.691Z,14.24
2022-07-27T18:23:53.737Z,14.19
2022-07-27T18:26:22.348Z,14.19
2022-07-27T18:28:52.770Z,14.08
2022-07-27T18:31:21.134Z,14.05
2022-07-27T18:33:53.314Z,14.15
2022-07-27T18:36:23.009Z,14.11
2022-07-27T18:38:51.949Z,14.07
2022-07-27T18:41:21.309Z,14.09
2022-07-27T18:43:52.920Z,14.17
2022-07-27T18:46:24.438Z,14.02
2022-07-27T18:48:53.280Z,14.14
2022-07-27T18:51:22.572Z,14.14
2022-07-27T18:53:51.561Z,13.67
2022-07-27T18:56:20.404Z,13.64
2022-07-27T18:58:49.091Z,13.71
2022-07-27T19:01:18.930Z,13.51
2022-07-27T19:03:48.121Z,13.47
2022-07-27T19:06:18.216Z,13.55
2022-07-27T19:08:46.808Z,13.32
2022-07-27T19:11:15.378Z,13.36
2022-07-27T19:13:45.973Z,13.51
2022-07-27T19:16:13.885Z,13.15
2022-07-27T19:22:21.358Z,13.07
2022-07-27T19:24:54.691Z,13.05
2022-07-27T19:27:25.359Z,13.04
2022-07-27T19:29:55.131Z,13.26
2022-07-27T19:32:27.060Z,13.34
2022-07-27T19:34:59.571Z,13.12
2022-07-27T19:37:31.402Z,13.31
2022-07-27T19:40:14.415Z,13.04
2022-07-27T19:42:49.390Z,12.97
2022-07-27T19:45:24.740Z,13.42
2022-07-27T19:48:00.607Z,13.03
2022-07-27T19:50:32.426Z,13.14
2022-07-27T19:53:10.744Z,13.10
2022-07-27T19:55:40.728Z,12.93
2022-07-27T19:58:14.610Z,12.91
2022-07-27T20:00:46.721Z,13.01
2022-07-27T20:03:21.026Z,12.96
2022-07-27T20:05:52.335Z,13.08
2022-07-27T20:08:23.272Z,12.83
2022-07-27T20:10:52.472Z,12.77
2022-07-27T20:13:22.067Z,12.81
2022-07-27T20:15:50.930Z,12.77
2022-07-27T20:18:19.112Z,12.80
2022-07-27T20:20:47.567Z,12.77
2022-07-27T20:23:16.796Z,12.83
2022-07-27T20:25:45.800Z,13.11
2022-07-27T20:28:18.825Z,12.95
2022-07-27T20:30:50.892Z,12.97
2022-07-27T20:33:22.929Z,13.05
2022-07-27T20:35:51.721Z,13.06
2022-07-27T20:38:20.831Z,12.68
2022-07-27T20:40:52.902Z,12.78
2022-07-27T20:43:23.372Z,12.84
2022-07-27T20:45:55.447Z,12.87
2022-07-27T20:48:24.862Z,12.90
2022-07-27T20:50:55.358Z,12.90
2022-07-27T20:53:30.569Z,12.95
2022-07-27T20:56:02.450Z,12.93
2022-07-27T20:58:35.296Z,12.90
2022-07-27T21:01:06.120Z,12.97
2022-07-27T21:03:34.820Z,13.12
2022-07-27T21:06:03.854Z,13.08
2022-07-27T21:08:32.995Z,13.14
2022-07-27T21:11:01.855Z,13.14
2022-07-27T21:13:30.724Z,13.17
2022-07-27T21:15:59.363Z,13.17
2022-07-27T21:18:29.289Z,13.14
2022-07-27T21:20:57.303Z,13.15
2022-07-27T21:23:47.441Z,13.14
2022-07-27T21:26:18.171Z,13.13
2022-07-27T21:28:51.813Z,13.14
2022-07-27T21:31:24.723Z,13.19
2022-07-27T21:33:56.013Z,13.15
2022-07-27T21:36:25.269Z,13.18
2022-07-27T21:38:53.361Z,13.19
2022-07-27T21:41:23.183Z,13.21
2022-07-27T21:43:51.866Z,13.19
2022-07-27T21:46:20.209Z,13.16
2022-07-27T21:48:48.935Z,13.17
2022-07-27T21:51:18.717Z,13.22
2022-07-27T21:53:50.479Z,13.20
2022-07-27T21:56:19.577Z,13.23
2022-07-27T21:58:48.482Z,13.23
2022-07-27T22:01:17.421Z,13.23
2022-07-27T22:03:46.284Z,13.25
2022-07-27T22:06:14.603Z,13.19
2022-07-27T22:08:43.069Z,13.22
2022-07-27T22:11:11.076Z,13.24
2022-07-27T22:13:39.108Z,13.24
2022-07-27T22:16:07.183Z,13.21
2022-07-27T22:18:35.552Z,13.19
2022-07-27T22:21:03.291Z,13.21
2022-07-27T22:23:31.409Z,13.24
2022-07-27T22:26:00.236Z,13.24
2022-07-27T22:28:28.141Z,13.19
2022-07-27T22:31:16.450Z,13.21
2022-07-27T22:33:45.350Z,13.19
2022-07-27T22:36:13.181Z,13.23
2022-07-27T22:38:41.189Z,13.17
2022-07-27T22:41:09.401Z,13.18
2022-07-27T22:43:37.196Z,13.21
2022-07-27T22:46:06.193Z,13.17
2022-07-27T22:48:34.474Z,13.20
2022-07-27T22:51:03.102Z,13.19
2022-07-27T22:53:30.949Z,13.16
2022-07-27T22:55:58.897Z,13.16
2022-07-27T22:58:26.671Z,13.17
2022-07-27T23:00:59.097Z,13.21
2022-07-27T23:03:27.794Z,13.17
2022-07-27T23:05:55.535Z,13.15
2022-07-27T23:08:23.456Z,13.17
2022-07-27T23:10:51.442Z,13.14
2022-07-27T23:13:20.668Z,13.15
2022-07-27T23:15:49.195Z,13.12
2022-07-27T23:18:17.353Z,13.19
2022-07-27T23:20:45.449Z,13.16
2022-07-27T23:23:16.335Z,13.11
2022-07-27T23:25:49.426Z,13.14
2022-07-27T23:28:18.291Z,13.12
2022-07-27T23:30:46.459Z,13.11
2022-07-27T23:33:14.107Z,13.09
2022-07-27T23:35:41.962Z,13.11
2022-07-27T23:38:10.044Z,13.12
2022-07-27T23:40:37.812Z,13.12
2022-07-27T23:43:05.558Z,13.07
2022-07-27T23:45:34.760Z,13.11
2022-07-27T23:48:02.964Z,13.08
2022-07-27T23:50:30.741Z,13.08
2022-07-27T23:52:58.630Z,13.09
2022-07-27T23:55:26.866Z,13.11
2022-07-27T23:57:55.305Z,13.12
